Coulee Dam, Washington
Current Conditions -  °F | °C
As of 10:53 PM on Tuesday 21 Oct 2014 (Local Time) from KOMK Reporting Station
Clear Clear  
Wind Chill: 52°   Ceiling: Unl
Heat Index: 52°   Visibility: 10mi
Dew Point: 41°   Wind: 8mph
Humidity: 66%   Direction: 170°S
Pressure: 29.89"   Gusts: NA
Location:  47.97°N, 118.98°W
Report Text: KOMK 220553Z AUTO 17007KT 10SM CLR 11/05 A2989 RMK AO2 SLP123 T01110050 10161 20106 55000
Loading
Personal Weather Stations






























Interactive Weather Map
Tropical Storm Tracking
New forecast layout! Learn more

10-Day Weather Forecast

Advertisements
Track Severe Weather on mobile